sensor_id;sensor_type;location;lat;lon;timestamp;P1;durP1;ratioP1;P2;durP2;ratioP2
30571;SDS011;17348;50.948;10.696;2022-12-18T00:01:45;26.60;;;9.30;;
30571;SDS011;17348;50.948;10.696;2022-12-18T00:04:48;27.07;;;11.10;;
30571;SDS011;17348;50.948;10.696;2022-12-18T00:07:52;24.57;;;9.90;;
30571;SDS011;17348;50.948;10.696;2022-12-18T00:10:54;32.23;;;10.00;;
30571;SDS011;17348;50.948;10.696;2022-12-18T00:13:57;28.83;;;9.00;;
30571;SDS011;17348;50.948;10.696;2022-12-18T00:17:00;24.77;;;10.07;;
30571;SDS011;17348;50.948;10.696;2022-12-18T00:20:03;33.93;;;12.13;;
30571;SDS011;17348;50.948;10.696;2022-12-18T00:23:07;23.57;;;10.13;;
30571;SDS011;17348;50.948;10.696;2022-12-18T00:26:10;26.57;;;8.60;;
30571;SDS011;17348;50.948;10.696;2022-12-18T00:29:15;28.97;;;9.33;;
30571;SDS011;17348;50.948;10.696;2022-12-18T00:32:17;24.93;;;8.57;;
30571;SDS011;17348;50.948;10.696;2022-12-18T00:35:20;21.83;;;8.27;;
30571;SDS011;17348;50.948;10.696;2022-12-18T00:38:23;22.73;;;7.30;;
30571;SDS011;17348;50.948;10.696;2022-12-18T00:41:26;23.87;;;7.83;;
30571;SDS011;17348;50.948;10.696;2022-12-18T00:47:48;12.77;;;5.40;;
30571;SDS011;17348;50.948;10.696;2022-12-18T00:50:50;26.00;;;7.33;;
30571;SDS011;17348;50.948;10.696;2022-12-18T00:53:54;19.37;;;7.20;;
30571;SDS011;17348;50.948;10.696;2022-12-18T00:56:57;32.97;;;7.97;;
30571;SDS011;17348;50.948;10.696;2022-12-18T00:59:59;20.37;;;7.70;;
30571;SDS011;17348;50.948;10.696;2022-12-18T01:03:01;14.67;;;6.07;;
30571;SDS011;17348;50.948;10.696;2022-12-18T01:06:05;21.87;;;7.00;;
30571;SDS011;17348;50.948;10.696;2022-12-18T01:09:09;23.23;;;6.80;;
30571;SDS011;17348;50.948;10.696;2022-12-18T01:12:12;15.50;;;6.20;;
30571;SDS011;17348;50.948;10.696;2022-12-18T01:15:14;20.83;;;7.57;;
30571;SDS011;17348;50.948;10.696;2022-12-18T01:18:17;19.40;;;7.80;;
30571;SDS011;17348;50.948;10.696;2022-12-18T01:21:20;14.10;;;5.90;;
30571;SDS011;17348;50.948;10.696;2022-12-18T01:24:24;17.87;;;4.80;;
30571;SDS011;17348;50.948;10.696;2022-12-18T01:27:26;25.27;;;6.93;;
30571;SDS011;17348;50.948;10.696;2022-12-18T01:30:28;16.17;;;6.43;;
30571;SDS011;17348;50.948;10.696;2022-12-18T01:33:31;22.10;;;7.17;;
30571;SDS011;17348;50.948;10.696;2022-12-18T01:36:34;21.30;;;6.63;;
30571;SDS011;17348;50.948;10.696;2022-12-18T01:39:40;17.80;;;5.47;;
30571;SDS011;17348;50.948;10.696;2022-12-18T01:42:43;16.37;;;6.67;;
30571;SDS011;17348;50.948;10.696;2022-12-18T01:45:45;20.13;;;6.30;;
30571;SDS011;17348;50.948;10.696;2022-12-18T01:48:48;16.17;;;6.33;;
30571;SDS011;17348;50.948;10.696;2022-12-18T01:51:52;17.80;;;5.37;;
30571;SDS011;17348;50.948;10.696;2022-12-18T01:54:56;21.13;;;6.17;;
30571;SDS011;17348;50.948;10.696;2022-12-18T01:57:59;25.50;;;5.90;;
30571;SDS011;17348;50.948;10.696;2022-12-18T02:01:02;23.47;;;6.97;;
30571;SDS011;17348;50.948;10.696;2022-12-18T02:04:19;19.43;;;7.10;;
30571;SDS011;17348;50.948;10.696;2022-12-18T02:07:24;16.73;;;8.30;;
30571;SDS011;17348;50.948;10.696;2022-12-18T02:10:35;19.00;;;7.50;;
30571;SDS011;17348;50.948;10.696;2022-12-18T02:13:46;21.77;;;6.87;;
30571;SDS011;17348;50.948;10.696;2022-12-18T02:16:59;30.73;;;10.13;;
30571;SDS011;17348;50.948;10.696;2022-12-18T02:20:08;31.10;;;8.57;;
30571;SDS011;17348;50.948;10.696;2022-12-18T02:23:21;17.17;;;7.70;;
30571;SDS011;17348;50.948;10.696;2022-12-18T02:26:38;23.57;;;8.27;;
30571;SDS011;17348;50.948;10.696;2022-12-18T02:29:48;23.15;;;8.80;;
30571;SDS011;17348;50.948;10.696;2022-12-18T02:32:52;29.97;;;9.03;;
30571;SDS011;17348;50.948;10.696;2022-12-18T02:35:55;28.30;;;9.30;;
30571;SDS011;17348;50.948;10.696;2022-12-18T02:38:59;24.50;;;8.93;;
30571;SDS011;17348;50.948;10.696;2022-12-18T02:42:05;16.33;;;7.53;;
30571;SDS011;17348;50.948;10.696;2022-12-18T02:45:10;27.77;;;7.67;;
30571;SDS011;17348;50.948;10.696;2022-12-18T02:48:12;32.23;;;8.17;;
30571;SDS011;17348;50.948;10.696;2022-12-18T02:51:17;22.70;;;8.73;;
30571;SDS011;17348;50.948;10.696;2022-12-18T02:57:40;17.87;;;7.13;;
30571;SDS011;17348;50.948;10.696;2022-12-18T03:00:48;31.10;;;7.90;;
30571;SDS011;17348;50.948;10.696;2022-12-18T03:03:57;21.67;;;8.88;;
30571;SDS011;17348;50.948;10.696;2022-12-18T03:07:05;20.30;;;7.33;;
30571;SDS011;17348;50.948;10.696;2022-12-18T03:10:12;28.50;;;9.00;;
30571;SDS011;17348;50.948;10.696;2022-12-18T03:13:20;16.87;;;6.77;;
30571;SDS011;17348;50.948;10.696;2022-12-18T03:16:27;30.30;;;8.53;;
30571;SDS011;17348;50.948;10.696;2022-12-18T03:19:31;24.00;;;7.90;;
30571;SDS011;17348;50.948;10.696;2022-12-18T03:22:34;23.10;;;7.93;;
30571;SDS011;17348;50.948;10.696;2022-12-18T03:25:39;24.10;;;6.50;;
30571;SDS011;17348;50.948;10.696;2022-12-18T03:28:45;19.50;;;6.87;;
30571;SDS011;17348;50.948;10.696;2022-12-18T03:31:53;22.67;;;6.77;;
30571;SDS011;17348;50.948;10.696;2022-12-18T03:34:59;18.57;;;6.90;;
30571;SDS011;17348;50.948;10.696;2022-12-18T03:38:05;19.77;;;7.70;;
30571;SDS011;17348;50.948;10.696;2022-12-18T03:41:10;17.33;;;6.10;;
30571;SDS011;17348;50.948;10.696;2022-12-18T03:44:21;16.77;;;5.88;;
30571;SDS011;17348;50.948;10.696;2022-12-18T03:47:31;16.50;;;7.63;;
30571;SDS011;17348;50.948;10.696;2022-12-18T03:50:38;14.73;;;6.07;;
30571;SDS011;17348;50.948;10.696;2022-12-18T03:53:47;16.67;;;6.80;;
30571;SDS011;17348;50.948;10.696;2022-12-18T03:56:58;14.60;;;6.83;;
30571;SDS011;17348;50.948;10.696;2022-12-18T04:00:07;11.27;;;4.82;;
30571;SDS011;17348;50.948;10.696;2022-12-18T04:03:12;13.60;;;4.87;;
30571;SDS011;17348;50.948;10.696;2022-12-18T04:06:16;14.57;;;5.23;;
30571;SDS011;17348;50.948;10.696;2022-12-18T04:09:19;23.07;;;6.70;;
30571;SDS011;17348;50.948;10.696;2022-12-18T04:12:23;25.43;;;6.47;;
30571;SDS011;17348;50.948;10.696;2022-12-18T04:15:27;19.27;;;6.13;;
30571;SDS011;17348;50.948;10.696;2022-12-18T04:18:30;12.80;;;5.97;;
30571;SDS011;17348;50.948;10.696;2022-12-18T04:21:32;19.13;;;6.63;;
30571;SDS011;17348;50.948;10.696;2022-12-18T04:24:35;19.40;;;6.70;;
30571;SDS011;17348;50.948;10.696;2022-12-18T04:27:37;19.83;;;6.00;;
30571;SDS011;17348;50.948;10.696;2022-12-18T04:30:41;21.50;;;6.73;;
30571;SDS011;17348;50.948;10.696;2022-12-18T04:33:43;25.37;;;7.97;;
30571;SDS011;17348;50.948;10.696;2022-12-18T04:36:46;25.73;;;7.83;;
30571;SDS011;17348;50.948;10.696;2022-12-18T04:39:48;20.53;;;7.53;;
30571;SDS011;17348;50.948;10.696;2022-12-18T04:42:50;19.57;;;6.80;;
30571;SDS011;17348;50.948;10.696;2022-12-18T04:45:54;16.93;;;8.20;;
30571;SDS011;17348;50.948;10.696;2022-12-18T04:49:03;21.88;;;8.05;;
30571;SDS011;17348;50.948;10.696;2022-12-18T04:52:05;14.23;;;6.63;;
30571;SDS011;17348;50.948;10.696;2022-12-18T04:55:08;20.17;;;6.70;;
30571;SDS011;17348;50.948;10.696;2022-12-18T04:58:10;24.90;;;9.57;;
30571;SDS011;17348;50.948;10.696;2022-12-18T05:01:15;20.40;;;6.60;;
30571;SDS011;17348;50.948;10.696;2022-12-18T05:04:18;14.03;;;6.57;;
30571;SDS011;17348;50.948;10.696;2022-12-18T05:07:21;16.13;;;7.73;;
30571;SDS011;17348;50.948;10.696;2022-12-18T05:10:23;25.70;;;7.73;;
30571;SDS011;17348;50.948;10.696;2022-12-18T05:13:25;19.83;;;8.37;;
30571;SDS011;17348;50.948;10.696;2022-12-18T05:16:35;21.43;;;7.63;;
30571;SDS011;17348;50.948;10.696;2022-12-18T05:19:37;27.20;;;8.77;;
30571;SDS011;17348;50.948;10.696;2022-12-18T05:22:39;20.03;;;8.43;;
30571;SDS011;17348;50.948;10.696;2022-12-18T05:25:42;23.90;;;8.47;;
30571;SDS011;17348;50.948;10.696;2022-12-18T05:28:47;20.13;;;7.43;;
30571;SDS011;17348;50.948;10.696;2022-12-18T05:31:51;22.20;;;9.43;;
30571;SDS011;17348;50.948;10.696;2022-12-18T05:34:53;23.47;;;9.43;;
30571;SDS011;17348;50.948;10.696;2022-12-18T05:37:57;27.00;;;9.83;;
30571;SDS011;17348;50.948;10.696;2022-12-18T05:41:00;22.33;;;8.03;;
30571;SDS011;17348;50.948;10.696;2022-12-18T05:44:02;25.40;;;9.70;;
30571;SDS011;17348;50.948;10.696;2022-12-18T05:47:06;33.13;;;12.27;;
30571;SDS011;17348;50.948;10.696;2022-12-18T05:50:09;22.60;;;8.77;;
30571;SDS011;17348;50.948;10.696;2022-12-18T05:53:11;15.23;;;7.73;;
30571;SDS011;17348;50.948;10.696;2022-12-18T05:56:16;26.67;;;8.70;;
30571;SDS011;17348;50.948;10.696;2022-12-18T05:59:19;26.83;;;7.93;;
30571;SDS011;17348;50.948;10.696;2022-12-18T06:02:23;17.50;;;5.77;;
30571;SDS011;17348;50.948;10.696;2022-12-18T06:05:26;12.87;;;6.53;;
30571;SDS011;17348;50.948;10.696;2022-12-18T06:08:28;12.07;;;4.47;;
30571;SDS011;17348;50.948;10.696;2022-12-18T06:11:30;9.10;;;4.80;;
30571;SDS011;17348;50.948;10.696;2022-12-18T06:14:33;12.87;;;5.67;;
30571;SDS011;17348;50.948;10.696;2022-12-18T06:17:36;16.63;;;5.10;;
30571;SDS011;17348;50.948;10.696;2022-12-18T06:20:39;11.53;;;5.47;;
30571;SDS011;17348;50.948;10.696;2022-12-18T06:23:41;20.83;;;7.10;;
30571;SDS011;17348;50.948;10.696;2022-12-18T06:26:44;10.03;;;3.97;;
30571;SDS011;17348;50.948;10.696;2022-12-18T06:29:49;13.63;;;5.77;;
30571;SDS011;17348;50.948;10.696;2022-12-18T06:32:52;11.30;;;5.13;;
30571;SDS011;17348;50.948;10.696;2022-12-18T06:35:59;14.33;;;6.63;;
30571;SDS011;17348;50.948;10.696;2022-12-18T06:39:02;16.83;;;4.70;;
30571;SDS011;17348;50.948;10.696;2022-12-18T06:42:04;8.60;;;3.90;;
30571;SDS011;17348;50.948;10.696;2022-12-18T06:45:07;15.70;;;4.73;;
30571;SDS011;17348;50.948;10.696;2022-12-18T06:48:11;16.67;;;7.27;;
30571;SDS011;17348;50.948;10.696;2022-12-18T06:51:15;25.47;;;8.47;;
30571;SDS011;17348;50.948;10.696;2022-12-18T06:54:21;26.60;;;11.17;;
30571;SDS011;17348;50.948;10.696;2022-12-18T06:57:24;25.37;;;9.37;;
30571;SDS011;17348;50.948;10.696;2022-12-18T07:00:26;28.97;;;10.57;;
30571;SDS011;17348;50.948;10.696;2022-12-18T07:03:30;20.03;;;7.10;;
30571;SDS011;17348;50.948;10.696;2022-12-18T07:06:32;23.17;;;9.90;;
30571;SDS011;17348;50.948;10.696;2022-12-18T07:09:35;23.27;;;7.90;;
30571;SDS011;17348;50.948;10.696;2022-12-18T07:12:37;26.80;;;9.80;;
30571;SDS011;17348;50.948;10.696;2022-12-18T07:15:39;28.97;;;10.40;;
30571;SDS011;17348;50.948;10.696;2022-12-18T07:18:43;18.10;;;7.77;;
30571;SDS011;17348;50.948;10.696;2022-12-18T07:21:45;25.70;;;9.40;;
30571;SDS011;17348;50.948;10.696;2022-12-18T07:24:48;31.07;;;8.87;;
30571;SDS011;17348;50.948;10.696;2022-12-18T07:27:50;17.50;;;6.07;;
30571;SDS011;17348;50.948;10.696;2022-12-18T07:30:55;20.57;;;7.23;;
30571;SDS011;17348;50.948;10.696;2022-12-18T07:34:00;17.07;;;5.17;;
30571;SDS011;17348;50.948;10.696;2022-12-18T07:37:02;15.43;;;5.27;;
30571;SDS011;17348;50.948;10.696;2022-12-18T07:40:05;12.37;;;4.87;;
30571;SDS011;17348;50.948;10.696;2022-12-18T07:43:09;33.03;;;9.07;;
30571;SDS011;17348;50.948;10.696;2022-12-18T07:46:12;32.87;;;9.13;;
30571;SDS011;17348;50.948;10.696;2022-12-18T07:49:18;33.43;;;9.17;;
30571;SDS011;17348;50.948;10.696;2022-12-18T07:52:20;27.20;;;6.70;;
30571;SDS011;17348;50.948;10.696;2022-12-18T07:55:23;24.07;;;7.33;;
30571;SDS011;17348;50.948;10.696;2022-12-18T07:58:26;20.90;;;6.80;;
30571;SDS011;17348;50.948;10.696;2022-12-18T08:01:29;22.73;;;7.50;;
30571;SDS011;17348;50.948;10.696;2022-12-18T08:04:33;27.27;;;8.07;;
30571;SDS011;17348;50.948;10.696;2022-12-18T08:07:36;16.50;;;7.67;;
30571;SDS011;17348;50.948;10.696;2022-12-18T08:10:38;18.83;;;6.73;;
30571;SDS011;17348;50.948;10.696;2022-12-18T08:13:41;21.03;;;7.70;;
30571;SDS011;17348;50.948;10.696;2022-12-18T08:16:43;22.47;;;8.40;;
30571;SDS011;17348;50.948;10.696;2022-12-18T08:19:47;27.53;;;8.23;;
30571;SDS011;17348;50.948;10.696;2022-12-18T08:22:49;26.07;;;10.70;;
30571;SDS011;17348;50.948;10.696;2022-12-18T08:25:52;30.33;;;11.33;;
30571;SDS011;17348;50.948;10.696;2022-12-18T08:28:54;37.33;;;15.53;;
30571;SDS011;17348;50.948;10.696;2022-12-18T08:31:57;42.93;;;17.27;;
30571;SDS011;17348;50.948;10.696;2022-12-18T08:35:01;32.83;;;14.37;;
30571;SDS011;17348;50.948;10.696;2022-12-18T08:38:04;40.70;;;12.63;;
30571;SDS011;17348;50.948;10.696;2022-12-18T08:41:07;51.47;;;17.90;;
30571;SDS011;17348;50.948;10.696;2022-12-18T08:44:11;43.07;;;16.60;;
30571;SDS011;17348;50.948;10.696;2022-12-18T08:47:31;46.75;;;17.60;;
30571;SDS011;17348;50.948;10.696;2022-12-18T08:50:35;42.43;;;16.87;;
30571;SDS011;17348;50.948;10.696;2022-12-18T08:53:37;50.33;;;18.20;;
30571;SDS011;17348;50.948;10.696;2022-12-18T08:56:40;42.70;;;17.17;;
30571;SDS011;17348;50.948;10.696;2022-12-18T08:59:42;41.53;;;16.70;;
30571;SDS011;17348;50.948;10.696;2022-12-18T09:02:45;39.27;;;14.43;;
30571;SDS011;17348;50.948;10.696;2022-12-18T09:05:49;35.70;;;14.27;;
30571;SDS011;17348;50.948;10.696;2022-12-18T09:08:52;39.00;;;14.93;;
30571;SDS011;17348;50.948;10.696;2022-12-18T09:11:55;35.87;;;13.07;;
30571;SDS011;17348;50.948;10.696;2022-12-18T09:14:58;41.90;;;17.50;;
30571;SDS011;17348;50.948;10.696;2022-12-18T09:18:00;47.13;;;15.93;;
30571;SDS011;17348;50.948;10.696;2022-12-18T09:21:12;39.10;;;16.77;;
30571;SDS011;17348;50.948;10.696;2022-12-18T09:24:15;40.37;;;15.83;;
30571;SDS011;17348;50.948;10.696;2022-12-18T09:27:18;36.63;;;14.30;;
30571;SDS011;17348;50.948;10.696;2022-12-18T09:30:20;43.00;;;15.50;;
30571;SDS011;17348;50.948;10.696;2022-12-18T09:33:23;36.93;;;15.13;;
30571;SDS011;17348;50.948;10.696;2022-12-18T09:36:26;48.47;;;19.20;;
30571;SDS011;17348;50.948;10.696;2022-12-18T09:39:29;49.37;;;17.37;;
30571;SDS011;17348;50.948;10.696;2022-12-18T09:42:31;43.50;;;14.30;;
30571;SDS011;17348;50.948;10.696;2022-12-18T09:45:37;48.67;;;16.13;;
30571;SDS011;17348;50.948;10.696;2022-12-18T09:48:43;57.00;;;17.43;;
30571;SDS011;17348;50.948;10.696;2022-12-18T09:51:50;54.27;;;19.33;;
30571;SDS011;17348;50.948;10.696;2022-12-18T09:54:58;50.20;;;17.70;;
30571;SDS011;17348;50.948;10.696;2022-12-18T09:58:05;51.10;;;17.30;;
30571;SDS011;17348;50.948;10.696;2022-12-18T10:01:15;52.23;;;20.67;;
30571;SDS011;17348;50.948;10.696;2022-12-18T10:04:23;58.47;;;20.13;;
30571;SDS011;17348;50.948;10.696;2022-12-18T10:07:28;53.10;;;20.77;;
30571;SDS011;17348;50.948;10.696;2022-12-18T10:10:40;61.97;;;20.37;;
30571;SDS011;17348;50.948;10.696;2022-12-18T10:13:49;53.47;;;18.80;;
30571;SDS011;17348;50.948;10.696;2022-12-18T10:16:59;47.83;;;17.17;;
30571;SDS011;17348;50.948;10.696;2022-12-18T10:20:10;57.53;;;20.53;;
30571;SDS011;17348;50.948;10.696;2022-12-18T10:23:20;44.87;;;19.40;;
30571;SDS011;17348;50.948;10.696;2022-12-18T10:26:27;45.25;;;16.45;;
30571;SDS011;17348;50.948;10.696;2022-12-18T10:29:30;46.50;;;17.10;;
30571;SDS011;17348;50.948;10.696;2022-12-18T10:32:32;50.80;;;19.40;;
30571;SDS011;17348;50.948;10.696;2022-12-18T10:35:35;50.80;;;19.63;;
30571;SDS011;17348;50.948;10.696;2022-12-18T10:38:39;56.00;;;20.53;;
30571;SDS011;17348;50.948;10.696;2022-12-18T10:41:41;67.37;;;22.33;;
30571;SDS011;17348;50.948;10.696;2022-12-18T10:44:44;56.03;;;20.23;;
30571;SDS011;17348;50.948;10.696;2022-12-18T10:47:47;46.87;;;19.07;;
30571;SDS011;17348;50.948;10.696;2022-12-18T10:50:51;46.77;;;17.23;;
30571;SDS011;17348;50.948;10.696;2022-12-18T10:53:57;40.13;;;15.83;;
30571;SDS011;17348;50.948;10.696;2022-12-18T10:57:13;43.07;;;17.47;;
30571;SDS011;17348;50.948;10.696;2022-12-18T11:00:24;38.33;;;16.67;;
30571;SDS011;17348;50.948;10.696;2022-12-18T11:03:30;31.60;;;12.77;;
30571;SDS011;17348;50.948;10.696;2022-12-18T11:06:36;35.07;;;11.73;;
30571;SDS011;17348;50.948;10.696;2022-12-18T11:10:00;35.90;;;11.97;;
30571;SDS011;17348;50.948;10.696;2022-12-18T11:13:14;23.57;;;10.07;;
30571;SDS011;17348;50.948;10.696;2022-12-18T11:16:19;36.07;;;12.80;;
30571;SDS011;17348;50.948;10.696;2022-12-18T11:19:25;26.80;;;11.73;;
30571;SDS011;17348;50.948;10.696;2022-12-18T11:22:32;31.50;;;13.10;;
30571;SDS011;17348;50.948;10.696;2022-12-18T11:25:38;32.10;;;14.47;;
30571;SDS011;17348;50.948;10.696;2022-12-18T11:28:41;30.03;;;12.33;;
30571;SDS011;17348;50.948;10.696;2022-12-18T11:31:46;29.47;;;13.13;;
30571;SDS011;17348;50.948;10.696;2022-12-18T11:34:49;29.07;;;11.60;;
30571;SDS011;17348;50.948;10.696;2022-12-18T11:37:58;33.80;;;12.83;;
30571;SDS011;17348;50.948;10.696;2022-12-18T11:41:10;28.07;;;11.73;;
30571;SDS011;17348;50.948;10.696;2022-12-18T11:44:22;31.87;;;11.97;;
30571;SDS011;17348;50.948;10.696;2022-12-18T11:47:30;27.90;;;12.10;;
30571;SDS011;17348;50.948;10.696;2022-12-18T11:50:45;30.10;;;12.37;;
30571;SDS011;17348;50.948;10.696;2022-12-18T11:53:51;31.77;;;13.27;;
30571;SDS011;17348;50.948;10.696;2022-12-18T11:56:55;31.33;;;13.60;;
30571;SDS011;17348;50.948;10.696;2022-12-18T12:00:07;43.08;;;14.52;;
30571;SDS011;17348;50.948;10.696;2022-12-18T12:03:29;41.30;;;17.67;;
30571;SDS011;17348;50.948;10.696;2022-12-18T12:06:50;35.43;;;15.40;;
30571;SDS011;17348;50.948;10.696;2022-12-18T12:10:04;35.27;;;15.67;;
30571;SDS011;17348;50.948;10.696;2022-12-18T12:13:19;36.73;;;16.43;;
30571;SDS011;17348;50.948;10.696;2022-12-18T12:16:33;41.83;;;16.20;;
30571;SDS011;17348;50.948;10.696;2022-12-18T12:19:41;43.47;;;17.90;;
30571;SDS011;17348;50.948;10.696;2022-12-18T12:22:51;46.20;;;16.67;;
30571;SDS011;17348;50.948;10.696;2022-12-18T12:26:02;32.53;;;14.50;;
30571;SDS011;17348;50.948;10.696;2022-12-18T12:29:21;38.00;;;15.27;;
30571;SDS011;17348;50.948;10.696;2022-12-18T12:32:48;40.70;;;13.60;;
30571;SDS011;17348;50.948;10.696;2022-12-18T12:36:03;34.67;;;13.33;;
30571;SDS011;17348;50.948;10.696;2022-12-18T12:39:15;39.87;;;15.67;;
30571;SDS011;17348;50.948;10.696;2022-12-18T12:42:24;38.80;;;15.63;;
30571;SDS011;17348;50.948;10.696;2022-12-18T12:45:51;37.57;;;15.30;;
30571;SDS011;17348;50.948;10.696;2022-12-18T12:48:58;38.83;;;14.77;;
30571;SDS011;17348;50.948;10.696;2022-12-18T12:52:04;43.77;;;15.07;;
30571;SDS011;17348;50.948;10.696;2022-12-18T12:55:14;36.20;;;15.70;;
30571;SDS011;17348;50.948;10.696;2022-12-18T12:58:22;37.80;;;15.63;;
30571;SDS011;17348;50.948;10.696;2022-12-18T13:01:34;36.37;;;15.90;;
30571;SDS011;17348;50.948;10.696;2022-12-18T13:04:44;61.08;;;22.10;;
30571;SDS011;17348;50.948;10.696;2022-12-18T13:07:51;47.00;;;18.60;;
30571;SDS011;17348;50.948;10.696;2022-12-18T13:10:59;42.20;;;18.77;;
30571;SDS011;17348;50.948;10.696;2022-12-18T13:14:23;46.40;;;18.27;;
30571;SDS011;17348;50.948;10.696;2022-12-18T13:17:29;48.13;;;17.27;;
30571;SDS011;17348;50.948;10.696;2022-12-18T13:20:33;47.57;;;18.07;;
30571;SDS011;17348;50.948;10.696;2022-12-18T13:23:36;46.00;;;20.30;;
30571;SDS011;17348;50.948;10.696;2022-12-18T13:26:39;42.73;;;15.80;;
30571;SDS011;17348;50.948;10.696;2022-12-18T13:29:42;40.87;;;15.80;;
30571;SDS011;17348;50.948;10.696;2022-12-18T13:32:46;44.80;;;16.87;;
30571;SDS011;17348;50.948;10.696;2022-12-18T13:35:51;47.93;;;17.63;;
30571;SDS011;17348;50.948;10.696;2022-12-18T13:39:11;40.77;;;16.93;;
30571;SDS011;17348;50.948;10.696;2022-12-18T13:42:37;52.70;;;18.67;;
30571;SDS011;17348;50.948;10.696;2022-12-18T13:46:05;41.97;;;17.07;;
30571;SDS011;17348;50.948;10.696;2022-12-18T13:49:24;52.23;;;18.23;;
30571;SDS011;17348;50.948;10.696;2022-12-18T13:52:33;53.90;;;17.43;;
30571;SDS011;17348;50.948;10.696;2022-12-18T13:55:38;57.17;;;19.53;;
30571;SDS011;17348;50.948;10.696;2022-12-18T13:58:47;56.67;;;19.50;;
30571;SDS011;17348;50.948;10.696;2022-12-18T14:02:13;50.40;;;18.70;;
30571;SDS011;17348;50.948;10.696;2022-12-18T14:05:22;46.10;;;18.03;;
30571;SDS011;17348;50.948;10.696;2022-12-18T14:08:25;46.03;;;18.87;;
30571;SDS011;17348;50.948;10.696;2022-12-18T14:11:33;42.30;;;18.50;;
30571;SDS011;17348;50.948;10.696;2022-12-18T14:14:37;56.87;;;21.57;;
30571;SDS011;17348;50.948;10.696;2022-12-18T14:17:43;54.60;;;21.27;;
30571;SDS011;17348;50.948;10.696;2022-12-18T14:20:47;51.77;;;20.27;;
30571;SDS011;17348;50.948;10.696;2022-12-18T14:24:02;54.30;;;20.13;;
30571;SDS011;17348;50.948;10.696;2022-12-18T14:27:12;52.73;;;17.87;;
30571;SDS011;17348;50.948;10.696;2022-12-18T14:30:26;44.03;;;18.13;;
30571;SDS011;17348;50.948;10.696;2022-12-18T14:33:30;45.77;;;19.47;;
30571;SDS011;17348;50.948;10.696;2022-12-18T14:36:34;39.40;;;18.43;;
30571;SDS011;17348;50.948;10.696;2022-12-18T14:39:36;48.67;;;17.90;;
30571;SDS011;17348;50.948;10.696;2022-12-18T14:42:39;50.57;;;19.03;;
30571;SDS011;17348;50.948;10.696;2022-12-18T14:45:41;47.87;;;18.53;;
30571;SDS011;17348;50.948;10.696;2022-12-18T14:48:45;57.33;;;21.93;;
30571;SDS011;17348;50.948;10.696;2022-12-18T14:51:51;46.33;;;18.70;;
30571;SDS011;17348;50.948;10.696;2022-12-18T14:54:55;48.33;;;18.90;;
30571;SDS011;17348;50.948;10.696;2022-12-18T14:57:57;61.30;;;20.00;;
30571;SDS011;17348;50.948;10.696;2022-12-18T15:01:00;47.63;;;19.87;;
30571;SDS011;17348;50.948;10.696;2022-12-18T15:04:03;53.57;;;19.67;;
30571;SDS011;17348;50.948;10.696;2022-12-18T15:07:13;48.73;;;19.50;;
30571;SDS011;17348;50.948;10.696;2022-12-18T15:10:19;47.30;;;21.00;;
30571;SDS011;17348;50.948;10.696;2022-12-18T15:13:23;49.10;;;18.67;;
30571;SDS011;17348;50.948;10.696;2022-12-18T15:16:26;54.80;;;21.07;;
30571;SDS011;17348;50.948;10.696;2022-12-18T15:19:32;52.87;;;20.80;;
30571;SDS011;17348;50.948;10.696;2022-12-18T15:22:40;52.08;;;21.25;;
30571;SDS011;17348;50.948;10.696;2022-12-18T15:25:43;56.93;;;22.43;;
30571;SDS011;17348;50.948;10.696;2022-12-18T15:28:47;60.37;;;23.23;;
30571;SDS011;17348;50.948;10.696;2022-12-18T15:31:58;54.17;;;20.50;;
30571;SDS011;17348;50.948;10.696;2022-12-18T15:35:03;48.80;;;19.20;;
30571;SDS011;17348;50.948;10.696;2022-12-18T15:38:14;48.33;;;17.83;;
30571;SDS011;17348;50.948;10.696;2022-12-18T15:41:17;43.17;;;18.40;;
30571;SDS011;17348;50.948;10.696;2022-12-18T15:44:22;42.13;;;15.33;;
30571;SDS011;17348;50.948;10.696;2022-12-18T15:47:24;47.37;;;18.63;;
30571;SDS011;17348;50.948;10.696;2022-12-18T15:50:26;45.57;;;17.43;;
30571;SDS011;17348;50.948;10.696;2022-12-18T15:53:31;45.63;;;18.00;;
30571;SDS011;17348;50.948;10.696;2022-12-18T15:56:35;44.03;;;18.93;;
30571;SDS011;17348;50.948;10.696;2022-12-18T15:59:55;60.33;;;19.40;;
30571;SDS011;17348;50.948;10.696;2022-12-18T16:02:58;58.33;;;18.63;;
30571;SDS011;17348;50.948;10.696;2022-12-18T16:06:01;56.20;;;21.03;;
30571;SDS011;17348;50.948;10.696;2022-12-18T16:09:04;55.70;;;21.00;;
30571;SDS011;17348;50.948;10.696;2022-12-18T16:12:09;51.63;;;18.60;;
30571;SDS011;17348;50.948;10.696;2022-12-18T16:15:18;55.17;;;21.13;;
30571;SDS011;17348;50.948;10.696;2022-12-18T16:18:21;50.87;;;20.90;;
30571;SDS011;17348;50.948;10.696;2022-12-18T16:21:23;67.53;;;24.70;;
30571;SDS011;17348;50.948;10.696;2022-12-18T16:24:27;71.23;;;25.40;;
30571;SDS011;17348;50.948;10.696;2022-12-18T16:27:31;74.67;;;26.43;;
30571;SDS011;17348;50.948;10.696;2022-12-18T16:30:33;82.07;;;29.20;;
30571;SDS011;17348;50.948;10.696;2022-12-18T16:33:36;75.77;;;27.07;;
30571;SDS011;17348;50.948;10.696;2022-12-18T16:36:38;56.97;;;24.47;;
30571;SDS011;17348;50.948;10.696;2022-12-18T16:39:43;68.80;;;25.07;;
30571;SDS011;17348;50.948;10.696;2022-12-18T16:42:45;63.43;;;22.63;;
30571;SDS011;17348;50.948;10.696;2022-12-18T16:45:48;59.70;;;23.00;;
30571;SDS011;17348;50.948;10.696;2022-12-18T16:48:50;63.17;;;23.57;;
30571;SDS011;17348;50.948;10.696;2022-12-18T16:51:53;64.60;;;25.20;;
30571;SDS011;17348;50.948;10.696;2022-12-18T16:54:56;76.73;;;27.17;;
30571;SDS011;17348;50.948;10.696;2022-12-18T16:57:59;64.83;;;26.53;;
30571;SDS011;17348;50.948;10.696;2022-12-18T17:01:04;71.40;;;26.27;;
30571;SDS011;17348;50.948;10.696;2022-12-18T17:04:09;58.70;;;22.53;;
30571;SDS011;17348;50.948;10.696;2022-12-18T17:07:11;70.03;;;25.60;;
30571;SDS011;17348;50.948;10.696;2022-12-18T17:10:16;63.00;;;23.00;;
30571;SDS011;17348;50.948;10.696;2022-12-18T17:13:18;62.97;;;21.63;;
30571;SDS011;17348;50.948;10.696;2022-12-18T17:16:20;54.10;;;21.90;;
30571;SDS011;17348;50.948;10.696;2022-12-18T17:19:23;53.00;;;23.83;;
30571;SDS011;17348;50.948;10.696;2022-12-18T17:22:26;61.23;;;22.40;;
30571;SDS011;17348;50.948;10.696;2022-12-18T17:25:29;55.23;;;20.20;;
30571;SDS011;17348;50.948;10.696;2022-12-18T17:28:32;57.47;;;20.87;;
30571;SDS011;17348;50.948;10.696;2022-12-18T17:31:35;56.80;;;22.77;;
30571;SDS011;17348;50.948;10.696;2022-12-18T17:34:38;55.27;;;20.90;;
30571;SDS011;17348;50.948;10.696;2022-12-18T17:37:40;64.60;;;21.53;;
30571;SDS011;17348;50.948;10.696;2022-12-18T17:40:44;56.50;;;21.33;;
30571;SDS011;17348;50.948;10.696;2022-12-18T17:43:49;53.57;;;22.17;;
30571;SDS011;17348;50.948;10.696;2022-12-18T17:46:52;46.47;;;19.27;;
30571;SDS011;17348;50.948;10.696;2022-12-18T17:49:55;50.37;;;21.10;;
30571;SDS011;17348;50.948;10.696;2022-12-18T17:52:57;55.30;;;23.57;;
30571;SDS011;17348;50.948;10.696;2022-12-18T17:56:01;74.13;;;25.90;;
30571;SDS011;17348;50.948;10.696;2022-12-18T17:59:05;60.90;;;23.40;;
30571;SDS011;17348;50.948;10.696;2022-12-18T18:02:08;63.77;;;26.03;;